createdAt,value
2019-04-27T00:07:29.355Z,3.90
2019-04-27T00:18:30.251Z,3.70
2019-04-27T00:29:29.107Z,4.70
2019-04-27T00:40:29.014Z,5.40
2019-04-27T00:51:28.897Z,4.70
2019-04-27T01:02:28.723Z,4.50
2019-04-27T01:13:29.445Z,6.30
2019-04-27T01:24:28.723Z,4.90
2019-04-27T01:35:28.835Z,4.40
2019-04-27T01:46:29.546Z,4.60
2019-04-27T01:57:29.476Z,6.50
2019-04-27T02:08:28.653Z,4.70
2019-04-27T02:19:29.238Z,6.30
2019-04-27T02:30:30.469Z,4.80
2019-04-27T02:41:29.729Z,5.10
2019-04-27T02:52:29.818Z,5.90
2019-04-27T03:03:27.414Z,4.70
2019-04-27T03:14:32.447Z,4.80
2019-04-27T03:25:31.974Z,6.00
2019-04-27T03:36:31.272Z,3.60
2019-04-27T03:47:26.886Z,5.70
2019-04-27T03:58:26.765Z,5.70
2019-04-27T04:09:26.649Z,5.80
2019-04-27T04:20:26.509Z,7.20
2019-04-27T04:31:26.474Z,5.10
2019-04-27T04:42:26.283Z,5.10
2019-04-27T04:53:26.163Z,4.60
2019-04-27T05:04:26.015Z,5.00
2019-04-27T05:15:25.884Z,4.40
2019-04-27T05:26:25.777Z,4.40
2019-04-27T05:37:28.232Z,4.20
2019-04-27T05:48:27.700Z,4.80
2019-04-27T05:59:25.413Z,4.50
2019-04-27T06:10:25.271Z,3.60
2019-04-27T06:21:25.135Z,3.30
2019-04-27T06:32:25.005Z,2.30
2019-04-27T06:43:24.881Z,1.60
2019-04-27T06:54:24.755Z,1.80
2019-04-27T07:05:24.648Z,2.30
2019-04-27T07:16:24.505Z,2.10
2019-04-27T07:27:24.380Z,2.40
2019-04-27T07:38:24.262Z,2.30
2019-04-27T07:49:24.138Z,1.10
2019-04-27T08:00:24.019Z,2.60
2019-04-27T08:11:23.883Z,1.90
2019-04-27T08:22:23.757Z,3.30
2019-04-27T08:33:23.639Z,2.40
2019-04-27T08:44:23.506Z,2.70
2019-04-27T08:55:23.382Z,2.60
2019-04-27T09:06:23.632Z,2.40
2019-04-27T09:17:23.130Z,3.50
2019-04-27T09:28:23.007Z,2.90
2019-04-27T09:39:22.885Z,2.10
2019-04-27T09:50:22.785Z,3.80
2019-04-27T10:01:22.631Z,3.20
2019-04-27T10:12:22.517Z,3.10
2019-04-27T10:23:22.384Z,2.50
2019-04-27T10:34:22.281Z,1.90
2019-04-27T10:45:22.135Z,2.10
2019-04-27T10:56:22.027Z,2.60
2019-04-27T11:07:21.888Z,3.30
2019-04-27T11:18:21.774Z,2.70
2019-04-27T11:29:21.637Z,1.70
2019-04-27T11:40:21.597Z,1.30
2019-04-27T11:51:21.390Z,1.30
2019-04-27T12:02:21.262Z,1.30
2019-04-27T12:13:22.136Z,0.70
2019-04-27T12:24:21.015Z,0.70
2019-04-27T12:35:20.906Z,1.30
2019-04-27T12:46:20.768Z,1.60
2019-04-27T12:57:21.037Z,1.60
2019-04-27T13:08:20.522Z,1.30
2019-04-27T13:19:20.396Z,2.10
2019-04-27T13:30:20.270Z,1.40
2019-04-27T13:41:27.855Z,1.90
2019-04-27T13:52:20.033Z,1.40
2019-04-27T14:03:21.080Z,2.00
2019-04-27T14:14:20.195Z,1.60
2019-04-27T14:25:20.647Z,1.70
2019-04-27T14:36:19.526Z,1.30
2019-04-27T14:47:19.399Z,1.60
2019-04-27T14:58:19.542Z,2.00
2019-04-27T15:09:20.993Z,2.30
2019-04-27T15:20:22.684Z,2.20
2019-04-27T15:31:26.331Z,1.80
2019-04-27T15:42:19.052Z,1.30
2019-04-27T15:53:18.663Z,1.40
2019-04-27T16:04:18.545Z,1.30
2019-04-27T16:15:18.485Z,1.00
2019-04-27T16:26:18.461Z,1.60
2019-04-27T16:37:22.286Z,1.20
2019-04-27T16:48:19.021Z,1.00
2019-04-27T16:59:39.741Z,1.50
2019-04-27T17:10:25.549Z,1.40
2019-04-27T17:21:22.533Z,1.20
2019-04-27T17:32:19.852Z,1.00
2019-04-27T17:43:18.754Z,1.00
2019-04-27T17:54:18.186Z,1.70
2019-04-27T18:05:17.945Z,1.30
2019-04-27T18:16:18.999Z,2.60
2019-04-27T18:27:18.359Z,1.30
2019-04-27T18:38:17.797Z,1.10
2019-04-27T18:49:18.152Z,1.50
2019-04-27T19:00:16.539Z,2.10
2019-04-27T19:11:16.491Z,1.40
2019-04-27T19:22:16.295Z,2.40
2019-04-27T19:33:18.047Z,1.90
2019-04-27T19:44:16.058Z,2.00
2019-04-27T19:55:15.932Z,1.70
2019-04-27T20:06:15.812Z,2.80
2019-04-27T20:17:15.725Z,3.70
2019-04-27T20:28:15.553Z,2.80
2019-04-27T20:39:15.421Z,1.70
2019-04-27T20:50:15.314Z,2.20
2019-04-27T21:01:15.175Z,2.10
2019-04-27T21:12:15.069Z,2.10
2019-04-27T21:23:14.930Z,1.40
2019-04-27T21:34:14.807Z,2.30
2019-04-27T21:45:14.679Z,2.00
2019-04-27T21:56:14.565Z,1.60
2019-04-27T22:07:14.436Z,2.00
2019-04-27T22:18:14.335Z,2.10
2019-04-27T22:29:14.177Z,1.40
2019-04-27T22:40:14.055Z,1.60
2019-04-27T22:51:13.928Z,1.40
2019-04-27T23:02:13.804Z,1.20
2019-04-27T23:13:13.773Z,1.90
2019-04-27T23:24:13.551Z,1.30
2019-04-27T23:35:13.445Z,1.60
2019-04-27T23:46:13.303Z,2.90
2019-04-27T23:57:13.186Z,1.80
